Time;durP1;ratioP1;P1;durP2;ratioP2;P2;SDS_P1;SDS_P2;PMS_P1;PMS_P2;Temp;Humidity;BMP_temperature;BMP_pressure;BME280_temperature;BME280_humidity;BME280_pressure;Samples;Min_cycle;Max_cycle;Signal;HPM_P1;HPM_P2
2023/01/26 00:01:59;;;;;;;22.63;10.90;;;;;;;;;;5054882;28;20303;-75
2023/01/26 00:04:26;;;;;;;17.70;11.00;;;;;;;;;;5070519;28;20216;-76
2023/01/26 00:06:54;;;;;;;17.50;9.93;;;;;;;;;;5074820;28;20213;-76
2023/01/26 00:09:22;;;;;;;18.65;10.40;;;;;;;;;;5058947;28;20194;-76
2023/01/26 00:11:51;;;;;;;18.35;10.30;;;;;;;;;;5063712;28;20717;-75
2023/01/26 00:14:18;;;;;;;17.90;9.35;;;;;;;;;;5074765;28;20719;-76
2023/01/26 00:16:46;;;;;;;18.25;11.07;;;;;;;;;;5066049;28;20199;-76
2023/01/26 00:19:13;;;;;;;19.15;11.70;;;;;;;;;;5054642;28;20191;-76
2023/01/26 00:21:40;;;;;;;13.13;8.15;;;;;;;;;;5074137;28;20197;-76
2023/01/26 00:24:08;;;;;;;16.30;9.23;;;;;;;;;;5074471;28;20239;-76
2023/01/26 00:26:36;;;;;;;17.98;9.43;;;;;;;;;;5054581;28;20324;-76
2023/01/26 00:29:04;;;;;;;19.02;10.07;;;;;;;;;;5054224;28;20591;-76
2023/01/26 00:31:32;;;;;;;15.25;8.77;;;;;;;;;;5072676;28;20190;-76
2023/01/26 00:33:59;;;;;;;17.80;10.18;;;;;;;;;;5074283;28;20190;-76
2023/01/26 00:36:27;;;;;;;15.80;10.32;;;;;;;;;;5060623;28;20187;-76
2023/01/26 00:38:54;;;;;;;19.30;9.82;;;;;;;;;;5074480;28;20200;-76
2023/01/26 00:44:08;;;;;;;18.58;10.30;;;;;;;;;;5053904;28;20201;-76
2023/01/26 00:46:36;;;;;;;17.95;9.25;;;;;;;;;;5064658;28;20285;-76
2023/01/26 00:49:04;;;;;;;17.42;9.73;;;;;;;;;;5071429;28;20185;-76
2023/01/26 00:51:31;;;;;;;13.73;8.00;;;;;;;;;;5054160;28;20197;-76
2023/01/26 00:53:59;;;;;;;17.55;11.00;;;;;;;;;;5054057;28;20190;-76
2023/01/26 00:56:26;;;;;;;16.75;10.13;;;;;;;;;;5073181;28;20247;-76
2023/01/26 00:58:54;;;;;;;15.13;8.48;;;;;;;;;;5073891;28;20194;-76
2023/01/26 01:01:23;;;;;;;16.05;9.25;;;;;;;;;;5073448;28;20197;-76
2023/01/26 01:03:51;;;;;;;19.33;11.07;;;;;;;;;;5073735;28;20220;-76
2023/01/26 01:06:18;;;;;;;22.02;10.15;;;;;;;;;;5053668;28;20190;-76
2023/01/26 01:08:45;;;;;;;21.98;11.25;;;;;;;;;;5053484;28;20198;-75
2023/01/26 01:11:13;;;;;;;18.40;10.23;;;;;;;;;;5071533;28;20194;-76
2023/01/26 01:13:40;;;;;;;14.60;9.48;;;;;;;;;;5073452;28;20246;-76
2023/01/26 01:16:08;;;;;;;12.30;8.13;;;;;;;;;;5054873;28;20248;-76
2023/01/26 01:18:37;;;;;;;17.27;9.05;;;;;;;;;;5062161;28;20190;-76
2023/01/26 01:21:06;;;;;;;16.13;9.43;;;;;;;;;;5073408;28;20221;-76
2023/01/26 01:23:34;;;;;;;16.15;9.52;;;;;;;;;;5064387;28;20652;-76
2023/01/26 01:26:02;;;;;;;19.35;10.93;;;;;;;;;;5053211;28;20190;-76
2023/01/26 01:28:29;;;;;;;17.10;9.50;;;;;;;;;;5059787;28;20190;-76
2023/01/26 01:30:57;;;;;;;18.13;9.40;;;;;;;;;;5073037;28;20186;-76
2023/01/26 01:33:25;;;;;;;14.77;9.13;;;;;;;;;;5066956;28;20265;-76
2023/01/26 01:36:00;;;;;;;14.77;9.20;;;;;;;;;;5052674;28;20194;-75
2023/01/26 01:38:28;;;;;;;16.65;9.20;;;;;;;;;;5057831;28;20197;-76
2023/01/26 01:40:56;;;;;;;16.60;10.18;;;;;;;;;;5072673;28;20190;-75
2023/01/26 01:43:23;;;;;;;17.60;9.85;;;;;;;;;;5068350;28;20568;-76
2023/01/26 01:45:51;;;;;;;16.33;10.27;;;;;;;;;;5052631;28;20225;-76
2023/01/26 01:48:23;;;;;;;19.67;10.30;;;;;;;;;;5055203;28;20197;-76
2023/01/26 01:50:52;;;;;;;16.20;10.00;;;;;;;;;;5072724;28;20280;-76
2023/01/26 01:53:23;;;;;;;21.58;10.55;;;;;;;;;;5069930;28;20648;-76
2023/01/26 01:55:51;;;;;;;20.65;10.80;;;;;;;;;;5052305;28;20189;-76
2023/01/26 01:58:19;;;;;;;20.40;9.55;;;;;;;;;;5053502;28;20198;-75
2023/01/26 02:00:46;;;;;;;16.13;9.32;;;;;;;;;;5072677;28;20197;-75
2023/01/26 02:03:15;;;;;;;17.15;9.90;;;;;;;;;;5071534;28;20311;-76
2023/01/26 02:05:46;;;;;;;14.70;9.20;;;;;;;;;;5052108;28;20201;-76
2023/01/26 02:08:15;;;;;;;14.73;8.90;;;;;;;;;;5052260;28;20210;-76
2023/01/26 02:10:44;;;;;;;16.77;10.55;;;;;;;;;;5052446;28;20202;-76
2023/01/26 02:13:12;;;;;;;15.88;9.40;;;;;;;;;;5052374;28;20564;-75
2023/01/26 02:15:40;;;;;;;17.75;9.40;;;;;;;;;;5053130;28;20205;-75
2023/01/26 02:18:10;;;;;;;14.23;8.40;;;;;;;;;;5058518;28;20194;-75
2023/01/26 02:20:41;;;;;;;16.60;9.40;;;;;;;;;;5071562;28;20193;-76
2023/01/26 02:23:13;;;;;;;15.18;9.40;;;;;;;;;;5065682;28;20228;-76
2023/01/26 02:25:45;;;;;;;15.85;9.25;;;;;;;;;;5052167;28;20261;-76
2023/01/26 02:28:14;;;;;;;15.27;9.70;;;;;;;;;;5057967;28;20185;-76
2023/01/26 02:30:41;;;;;;;18.77;9.63;;;;;;;;;;5066702;28;20209;-76
2023/01/26 02:33:09;;;;;;;18.48;10.35;;;;;;;;;;5052782;28;20261;-76
2023/01/26 02:35:36;;;;;;;17.23;8.95;;;;;;;;;;5054544;28;20219;-75
2023/01/26 02:38:03;;;;;;;13.90;9.15;;;;;;;;;;5071835;28;20190;-76
2023/01/26 02:40:33;;;;;;;14.20;8.75;;;;;;;;;;5069287;28;20189;-76
2023/01/26 02:43:01;;;;;;;16.13;9.00;;;;;;;;;;5051761;28;20217;-76
2023/01/26 02:45:31;;;;;;;14.27;9.27;;;;;;;;;;5053103;28;20500;-76
2023/01/26 02:48:03;;;;;;;15.43;8.60;;;;;;;;;;5071785;28;20239;-76
2023/01/26 02:50:29;;;;;;;14.85;8.60;;;;;;;;;;5070606;28;20213;-76
2023/01/26 02:52:57;;;;;;;13.02;8.45;;;;;;;;;;5051897;28;20186;-76
2023/01/26 02:55:27;;;;;;;17.20;8.68;;;;;;;;;;5051747;28;20201;-76
2023/01/26 02:57:55;;;;;;;14.43;8.07;;;;;;;;;;5052182;28;20222;-76
2023/01/26 03:00:24;;;;;;;19.25;7.95;;;;;;;;;;5051878;28;20198;-76
2023/01/26 03:02:54;;;;;;;13.07;8.45;;;;;;;;;;5072013;28;20236;-76
2023/01/26 03:05:21;;;;;;;13.18;9.45;;;;;;;;;;5066156;28;20186;-74
2023/01/26 03:07:49;;;;;;;15.50;9.27;;;;;;;;;;5051992;28;20205;-76
2023/01/26 03:10:17;;;;;;;14.73;9.93;;;;;;;;;;5055083;28;20231;-76
2023/01/26 03:12:44;;;;;;;14.05;8.02;;;;;;;;;;5071595;28;20239;-75
2023/01/26 03:29:10;;;;;;;14.43;8.60;;;;;;;;;;5060892;28;20250;-75
2023/01/26 03:31:38;;;;;;;13.73;7.93;;;;;;;;;;5075145;28;20190;-76
2023/01/26 03:34:07;;;;;;;17.58;8.85;;;;;;;;;;5070734;28;20197;-76
2023/01/26 03:36:36;;;;;;;12.90;7.75;;;;;;;;;;5055132;28;20222;-76
2023/01/26 03:39:03;;;;;;;15.45;8.85;;;;;;;;;;5058326;28;20240;-76
2023/01/26 03:58:02;;;;;;;12.23;7.30;;;;;;;;;;5055296;28;20328;-76
2023/01/26 04:00:29;;;;;;;12.98;8.30;;;;;;;;;;5054665;28;20190;-76
2023/01/26 04:08:29;;;;;;;13.45;8.10;;;;;;;;;;5068490;28;20189;-75
2023/01/26 04:10:56;;;;;;;13.25;7.40;;;;;;;;;;5055050;28;20195;-76
2023/01/26 04:21:41;;;;;;;8.85;4.78;;;;;;;;;;5054534;28;20189;-76
2023/01/26 04:24:13;;;;;;;11.20;5.70;;;;;;;;;;5054169;28;20673;-76
2023/01/26 04:26:41;;;;;;;9.68;5.43;;;;;;;;;;5056780;28;20257;-76
2023/01/26 04:29:09;;;;;;;11.35;5.30;;;;;;;;;;5073487;28;20232;-76
2023/01/26 04:31:37;;;;;;;9.18;4.75;;;;;;;;;;5071510;28;20202;-76
2023/01/26 04:34:05;;;;;;;8.35;5.38;;;;;;;;;;5054332;28;20190;-76
2023/01/26 04:36:33;;;;;;;12.52;6.55;;;;;;;;;;5054694;28;20271;-77
2023/01/26 04:39:01;;;;;;;11.30;6.47;;;;;;;;;;5067556;28;20190;-76
2023/01/26 04:41:30;;;;;;;7.93;4.90;;;;;;;;;;5054060;28;20198;-76
2023/01/26 04:43:57;;;;;;;9.27;5.07;;;;;;;;;;5074042;28;20221;-75
2023/01/26 04:46:25;;;;;;;11.73;6.85;;;;;;;;;;5073725;28;20225;-76
2023/01/26 04:48:53;;;;;;;9.82;5.63;;;;;;;;;;5054842;28;20583;-76
2023/01/26 04:51:21;;;;;;;10.73;5.57;;;;;;;;;;5062087;28;20193;-76
2023/01/26 04:53:49;;;;;;;11.30;5.47;;;;;;;;;;5074134;28;20284;-75
2023/01/26 04:56:20;;;;;;;9.75;6.53;;;;;;;;;;5066811;28;20190;-76
2023/01/26 04:58:47;;;;;;;9.05;5.15;;;;;;;;;;5054157;28;20244;-76
2023/01/26 05:01:15;;;;;;;9.68;5.65;;;;;;;;;;5059619;28;20597;-75
2023/01/26 05:03:42;;;;;;;10.20;5.38;;;;;;;;;;5073461;28;20217;-76
2023/01/26 05:06:10;;;;;;;9.63;5.65;;;;;;;;;;5068106;28;20205;-76
2023/01/26 05:08:37;;;;;;;10.02;5.70;;;;;;;;;;5053798;28;20661;-76
2023/01/26 05:11:05;;;;;;;10.45;5.85;;;;;;;;;;5057013;28;20193;-75
2023/01/26 05:13:36;;;;;;;11.05;5.75;;;;;;;;;;5073591;28;20185;-76
2023/01/26 05:16:03;;;;;;;9.05;5.18;;;;;;;;;;5059859;28;20274;-76
2023/01/26 05:18:31;;;;;;;9.63;5.63;;;;;;;;;;5053406;28;20191;-76
2023/01/26 05:20:59;;;;;;;11.27;5.40;;;;;;;;;;5064846;28;20247;-75
2023/01/26 05:23:26;;;;;;;9.05;5.50;;;;;;;;;;5073463;28;20213;-75
2023/01/26 05:25:54;;;;;;;15.13;6.70;;;;;;;;;;5061699;28;20194;-76
2023/01/26 05:28:21;;;;;;;11.32;7.75;;;;;;;;;;5069349;28;20193;-75
2023/01/26 05:30:50;;;;;;;9.05;5.43;;;;;;;;;;5066852;28;20190;-75
2023/01/26 05:33:20;;;;;;;8.55;5.57;;;;;;;;;;5066753;28;20185;-75
2023/01/26 05:35:48;;;;;;;8.52;5.57;;;;;;;;;;5072955;28;20182;-75
2023/01/26 05:38:16;;;;;;;11.90;7.05;;;;;;;;;;5071234;28;20204;-75
2023/01/26 05:40:43;;;;;;;8.63;6.70;;;;;;;;;;5072580;28;20669;-75
2023/01/26 05:43:12;;;;;;;9.07;5.47;;;;;;;;;;5053425;28;20182;-76
2023/01/26 05:45:40;;;;;;;11.18;6.97;;;;;;;;;;5066574;28;20308;-76
2023/01/26 05:48:08;;;;;;;10.32;6.38;;;;;;;;;;5072145;28;20185;-76
2023/01/26 05:50:36;;;;;;;11.18;6.50;;;;;;;;;;5059629;28;20281;-76
2023/01/26 05:53:03;;;;;;;8.68;5.13;;;;;;;;;;5052480;28;20552;-76
2023/01/26 05:55:31;;;;;;;7.50;3.78;;;;;;;;;;5064205;28;20204;-76
2023/01/26 05:57:58;;;;;;;10.88;6.40;;;;;;;;;;5072811;28;20247;-76
2023/01/26 06:00:26;;;;;;;14.35;7.78;;;;;;;;;;5061649;28;20186;-76
2023/01/26 06:02:53;;;;;;;9.15;6.30;;;;;;;;;;5052736;28;20193;-76
2023/01/26 06:05:22;;;;;;;8.65;6.05;;;;;;;;;;5068710;28;20253;-75
2023/01/26 06:07:50;;;;;;;12.30;6.57;;;;;;;;;;5070824;28;20208;-76
2023/01/26 06:10:17;;;;;;;10.43;5.63;;;;;;;;;;5069422;28;20194;-76
2023/01/26 06:12:45;;;;;;;8.52;5.00;;;;;;;;;;5072153;28;20660;-76
2023/01/26 06:15:12;;;;;;;12.57;6.35;;;;;;;;;;5064309;28;20244;-76
2023/01/26 06:17:40;;;;;;;9.57;5.30;;;;;;;;;;5052583;28;20544;-76
2023/01/26 06:20:13;;;;;;;13.65;5.63;;;;;;;;;;5050777;28;20190;-76
2023/01/26 06:22:42;;;;;;;9.35;6.57;;;;;;;;;;5070478;28;20289;-76
2023/01/26 06:25:10;;;;;;;9.68;5.35;;;;;;;;;;5072187;28;20297;-76
2023/01/26 06:27:40;;;;;;;9.00;5.75;;;;;;;;;;5062196;28;20197;-76
2023/01/26 06:30:09;;;;;;;10.40;5.55;;;;;;;;;;5072330;28;20201;-76
2023/01/26 06:32:37;;;;;;;10.90;5.93;;;;;;;;;;5072269;28;20655;-76
2023/01/26 06:35:05;;;;;;;11.60;6.47;;;;;;;;;;5072709;28;20189;-76
2023/01/26 06:37:33;;;;;;;10.85;6.18;;;;;;;;;;5068284;28;20198;-76
2023/01/26 06:40:04;;;;;;;9.68;5.90;;;;;;;;;;5051984;28;20194;-76
2023/01/26 06:42:31;;;;;;;12.88;6.10;;;;;;;;;;5058427;28;20695;-76
2023/01/26 06:44:59;;;;;;;9.15;4.85;;;;;;;;;;5058013;28;20298;-76
2023/01/26 06:47:31;;;;;;;9.50;5.18;;;;;;;;;;5066632;28;20217;-76
2023/01/26 06:49:58;;;;;;;10.77;5.63;;;;;;;;;;5070129;28;20213;-76
2023/01/26 06:52:31;;;;;;;8.50;5.82;;;;;;;;;;5070324;28;20181;-76
2023/01/26 06:54:59;;;;;;;11.77;6.43;;;;;;;;;;5066214;28;20190;-76
2023/01/26 06:57:28;;;;;;;9.90;6.22;;;;;;;;;;5063698;28;20277;-76
2023/01/26 06:59:56;;;;;;;13.25;6.53;;;;;;;;;;5066085;28;20244;-76
2023/01/26 07:02:23;;;;;;;12.00;6.60;;;;;;;;;;5072382;28;20205;-76
2023/01/26 07:04:51;;;;;;;13.27;6.70;;;;;;;;;;5068549;28;20679;-76
2023/01/26 07:07:18;;;;;;;10.30;6.50;;;;;;;;;;5064019;28;20276;-76
2023/01/26 07:09:45;;;;;;;14.68;8.35;;;;;;;;;;5069245;28;20225;-76
2023/01/26 07:12:13;;;;;;;10.63;6.43;;;;;;;;;;5071632;28;20228;-76
2023/01/26 07:14:41;;;;;;;10.90;6.10;;;;;;;;;;5061413;28;20186;-76
2023/01/26 07:17:08;;;;;;;8.63;6.00;;;;;;;;;;5067686;28;20273;-76
2023/01/26 07:19:36;;;;;;;10.73;6.70;;;;;;;;;;5072032;28;20189;-76
2023/01/26 07:22:03;;;;;;;13.15;7.03;;;;;;;;;;5052702;28;20186;-76
2023/01/26 07:24:33;;;;;;;14.32;6.38;;;;;;;;;;5064997;28;20699;-76
2023/01/26 07:27:01;;;;;;;10.27;5.95;;;;;;;;;;5069020;28;20652;-76
2023/01/26 07:29:28;;;;;;;8.00;6.10;;;;;;;;;;5060487;28;20194;-76
2023/01/26 07:31:57;;;;;;;12.48;6.38;;;;;;;;;;5052757;28;20191;-76
2023/01/26 07:34:25;;;;;;;9.90;6.18;;;;;;;;;;5061194;28;20248;-77
2023/01/26 07:36:53;;;;;;;11.65;6.60;;;;;;;;;;5062036;28;20270;-77
2023/01/26 07:39:20;;;;;;;9.68;5.75;;;;;;;;;;5069079;28;20651;-77
2023/01/26 07:41:48;;;;;;;9.82;5.53;;;;;;;;;;5058862;28;20646;-77
2023/01/26 07:44:15;;;;;;;9.27;6.25;;;;;;;;;;5057755;28;20527;-76
2023/01/26 07:46:42;;;;;;;12.07;6.97;;;;;;;;;;5057113;28;20246;-77
2023/01/26 07:49:11;;;;;;;10.48;6.43;;;;;;;;;;5066525;28;20193;-77
2023/01/26 07:51:39;;;;;;;11.70;6.18;;;;;;;;;;5071482;28;20189;-76
2023/01/26 07:54:07;;;;;;;11.13;5.93;;;;;;;;;;5071301;28;20280;-76
2023/01/26 07:56:34;;;;;;;12.25;6.78;;;;;;;;;;5071903;28;20276;-77
2023/01/26 07:59:02;;;;;;;10.15;6.55;;;;;;;;;;5071810;28;20536;-76
2023/01/26 08:01:29;;;;;;;9.98;5.97;;;;;;;;;;5071738;28;20186;-76
2023/01/26 08:03:56;;;;;;;13.32;6.38;;;;;;;;;;5072099;28;20225;-77
2023/01/26 08:06:25;;;;;;;9.05;6.60;;;;;;;;;;5074999;28;20197;-76
2023/01/26 08:08:53;;;;;;;9.95;6.25;;;;;;;;;;5075698;28;20598;-77
2023/01/26 08:11:23;;;;;;;11.55;6.45;;;;;;;;;;5075521;28;20225;-77
2023/01/26 08:13:50;;;;;;;12.75;5.72;;;;;;;;;;5075602;28;20201;-77
2023/01/26 08:16:18;;;;;;;14.90;8.00;;;;;;;;;;5075186;28;20240;-77
2023/01/26 08:18:46;;;;;;;10.30;6.38;;;;;;;;;;5075295;28;20620;-77
2023/01/26 08:21:14;;;;;;;8.82;4.93;;;;;;;;;;5074682;28;20197;-77
2023/01/26 08:23:43;;;;;;;10.02;6.00;;;;;;;;;;5074833;28;20197;-75
2023/01/26 08:26:11;;;;;;;10.50;6.13;;;;;;;;;;5074911;28;20217;-77
2023/01/26 08:28:38;;;;;;;13.55;7.70;;;;;;;;;;5074680;28;20546;-77
2023/01/26 08:31:06;;;;;;;10.48;5.57;;;;;;;;;;5074854;28;20274;-77
2023/01/26 08:33:33;;;;;;;14.32;6.95;;;;;;;;;;5074947;28;20271;-77
2023/01/26 08:36:05;;;;;;;15.43;6.43;;;;;;;;;;5074542;28;20652;-77
2023/01/26 08:38:32;;;;;;;9.98;5.82;;;;;;;;;;5074348;28;20285;-77
2023/01/26 08:41:01;;;;;;;10.50;5.50;;;;;;;;;;5074423;28;20686;-77
2023/01/26 08:43:28;;;;;;;11.73;6.57;;;;;;;;;;5074608;28;20651;-77
2023/01/26 08:45:55;;;;;;;10.18;5.70;;;;;;;;;;5073953;28;20229;-77
2023/01/26 08:48:23;;;;;;;12.23;6.53;;;;;;;;;;5074667;28;20232;-77
2023/01/26 08:50:53;;;;;;;8.77;4.90;;;;;;;;;;5074449;28;20198;-77
2023/01/26 08:53:21;;;;;;;11.90;6.07;;;;;;;;;;5074656;28;20206;-77
2023/01/26 08:55:48;;;;;;;11.15;6.07;;;;;;;;;;5074625;28;20233;-76
2023/01/26 08:58:17;;;;;;;12.35;6.28;;;;;;;;;;5073804;28;20651;-75
2023/01/26 09:00:44;;;;;;;13.73;6.53;;;;;;;;;;5074299;28;20624;-77
2023/01/26 09:03:11;;;;;;;9.18;6.00;;;;;;;;;;5074251;28;20626;-76
2023/01/26 09:05:39;;;;;;;10.75;6.25;;;;;;;;;;5074056;28;20578;-76
2023/01/26 09:08:07;;;;;;;9.63;5.15;;;;;;;;;;5074117;28;20220;-77
2023/01/26 09:10:34;;;;;;;10.60;5.32;;;;;;;;;;5074067;28;20631;-76
2023/01/26 09:13:02;;;;;;;13.15;6.63;;;;;;;;;;5074194;28;20205;-76
2023/01/26 09:15:30;;;;;;;10.45;5.88;;;;;;;;;;5073648;28;20252;-76
2023/01/26 09:17:58;;;;;;;11.60;7.22;;;;;;;;;;5073783;28;20201;-77
2023/01/26 09:20:25;;;;;;;11.27;5.97;;;;;;;;;;5073490;28;20239;-77
2023/01/26 09:22:53;;;;;;;10.13;5.90;;;;;;;;;;5073942;28;20189;-77
2023/01/26 09:25:20;;;;;;;11.23;6.15;;;;;;;;;;5073875;28;20730;-77
2023/01/26 09:27:47;;;;;;;12.10;5.88;;;;;;;;;;5073928;28;20755;-77
2023/01/26 09:30:15;;;;;;;8.90;5.50;;;;;;;;;;5073821;28;20201;-76
2023/01/26 09:32:44;;;;;;;12.00;7.25;;;;;;;;;;5073652;28;20193;-76
2023/01/26 09:35:11;;;;;;;8.23;5.68;;;;;;;;;;5073533;28;20244;-77
2023/01/26 09:37:38;;;;;;;13.13;7.20;;;;;;;;;;5073612;28;20198;-76
2023/01/26 09:40:08;;;;;;;12.27;6.40;;;;;;;;;;5073072;28;20198;-77
2023/01/26 09:42:47;;;;;;;13.65;7.20;;;;;;;;;;5073408;28;20190;-77
2023/01/26 09:45:22;;;;;;;9.45;5.35;;;;;;;;;;5073255;28;20638;-77
2023/01/26 09:48:10;;;;;;;13.27;6.95;;;;;;;;;;5073042;28;20570;-77
2023/01/26 09:50:41;;;;;;;15.20;10.15;;;;;;;;;;5066832;28;20528;-76
2023/01/26 09:53:13;;;;;;;10.93;6.03;;;;;;;;;;5073356;28;20280;-76
2023/01/26 09:55:41;;;;;;;10.40;6.18;;;;;;;;;;5073292;28;20285;-77
2023/01/26 09:58:13;;;;;;;10.20;5.72;;;;;;;;;;5065273;28;20197;-77
2023/01/26 10:00:45;;;;;;;11.45;5.80;;;;;;;;;;5073438;28;20514;-76
2023/01/26 10:03:18;;;;;;;11.90;6.93;;;;;;;;;;5072921;28;20204;-76
2023/01/26 10:05:50;;;;;;;9.05;5.40;;;;;;;;;;5072880;28;20221;-77
2023/01/26 10:08:19;;;;;;;12.30;6.60;;;;;;;;;;5073014;28;20709;-76
2023/01/26 10:10:48;;;;;;;10.80;6.15;;;;;;;;;;5073014;28;20228;-77
2023/01/26 10:13:16;;;;;;;11.43;6.25;;;;;;;;;;5073007;28;20640;-76
2023/01/26 10:15:44;;;;;;;10.43;5.90;;;;;;;;;;5073197;28;20216;-76
2023/01/26 10:18:14;;;;;;;12.70;7.13;;;;;;;;;;5072927;28;20248;-77
2023/01/26 10:20:44;;;;;;;13.57;7.10;;;;;;;;;;5072823;28;20201;-76
2023/01/26 10:23:15;;;;;;;12.80;6.80;;;;;;;;;;5072786;28;20205;-77
2023/01/26 10:25:45;;;;;;;13.70;8.10;;;;;;;;;;5072455;28;20271;-76
2023/01/26 10:28:14;;;;;;;15.00;8.63;;;;;;;;;;5071856;28;20636;-77
2023/01/26 10:30:42;;;;;;;12.95;7.03;;;;;;;;;;5072814;28;20194;-77
2023/01/26 10:33:14;;;;;;;11.38;7.25;;;;;;;;;;5072473;28;20194;-78
2023/01/26 10:35:41;;;;;;;12.65;7.00;;;;;;;;;;5072090;28;20194;-77
2023/01/26 10:38:23;;;;;;;13.82;6.43;;;;;;;;;;5072538;28;20247;-77
2023/01/26 10:40:52;;;;;;;12.20;5.47;;;;;;;;;;5072314;28;20189;-77
2023/01/26 10:43:19;;;;;;;12.27;7.80;;;;;;;;;;5072761;28;20196;-77
2023/01/26 10:45:48;;;;;;;11.45;6.82;;;;;;;;;;5072067;28;20569;-76
2023/01/26 10:48:17;;;;;;;10.65;6.20;;;;;;;;;;5072273;28;20193;-77
2023/01/26 10:50:45;;;;;;;12.13;7.25;;;;;;;;;;5072106;28;20854;-77
2023/01/26 10:53:16;;;;;;;13.13;7.95;;;;;;;;;;5072436;28;20205;-77
2023/01/26 10:55:43;;;;;;;8.18;5.30;;;;;;;;;;5072378;28;20209;-77
2023/01/26 10:58:25;;;;;;;9.90;6.88;;;;;;;;;;5072230;28;20197;-77
2023/01/26 11:00:57;;;;;;;12.77;7.30;;;;;;;;;;5071530;28;20284;-77
2023/01/26 11:03:27;;;;;;;11.00;6.20;;;;;;;;;;5072490;28;20193;-77
2023/01/26 11:06:06;;;;;;;16.63;6.63;;;;;;;;;;5072030;28;20253;-76
2023/01/26 11:08:34;;;;;;;11.07;6.10;;;;;;;;;;5072538;28;20243;-76
2023/01/26 11:11:02;;;;;;;14.25;6.82;;;;;;;;;;5070039;28;20225;-77
2023/01/26 11:13:30;;;;;;;11.30;6.68;;;;;;;;;;5062423;28;20201;-75
2023/01/26 11:16:09;;;;;;;13.55;6.78;;;;;;;;;;5062822;28;20302;-77
2023/01/26 11:18:43;;;;;;;11.43;8.43;;;;;;;;;;5063974;28;20275;-77
2023/01/26 11:21:15;;;;;;;11.75;7.03;;;;;;;;;;5062680;28;20581;-75
2023/01/26 11:23:54;;;;;;;10.80;6.68;;;;;;;;;;5062344;28;20228;-78
2023/01/26 11:26:29;;;;;;;16.23;9.40;;;;;;;;;;5059382;28;20232;-77
2023/01/26 11:29:02;;;;;;;10.45;7.50;;;;;;;;;;5064031;28;20293;-77
2023/01/26 11:31:37;;;;;;;8.63;5.10;;;;;;;;;;5064847;28;20259;-76
2023/01/26 11:34:09;;;;;;;12.10;5.78;;;;;;;;;;5062501;28;20316;-76
2023/01/26 11:36:40;;;;;;;15.55;8.70;;;;;;;;;;5062759;28;20629;-77
2023/01/26 11:39:14;;;;;;;10.82;5.97;;;;;;;;;;5065271;28;20229;-76
2023/01/26 11:41:44;;;;;;;9.70;5.47;;;;;;;;;;5069155;28;20200;-77
2023/01/26 11:44:22;;;;;;;12.65;6.72;;;;;;;;;;5064194;28;20210;-76
2023/01/26 11:47:02;;;;;;;9.98;5.80;;;;;;;;;;5066709;28;20221;-77
2023/01/26 11:49:40;;;;;;;12.05;6.43;;;;;;;;;;5067647;28;20189;-78
2023/01/26 11:52:13;;;;;;;8.93;5.65;;;;;;;;;;5065649;28;20285;-76
2023/01/26 11:54:48;;;;;;;7.40;4.90;;;;;;;;;;5068059;28;20202;-77
2023/01/26 11:57:21;;;;;;;9.20;6.20;;;;;;;;;;5068469;28;20193;-77
2023/01/26 11:59:50;;;;;;;10.80;5.60;;;;;;;;;;5063911;28;20221;-77
2023/01/26 12:02:25;;;;;;;9.93;5.82;;;;;;;;;;5065667;28;20281;-77
2023/01/26 12:04:57;;;;;;;10.57;6.47;;;;;;;;;;5074181;28;20243;-77
2023/01/26 12:07:28;;;;;;;9.23;5.43;;;;;;;;;;5069767;28;20318;-77
2023/01/26 12:09:55;;;;;;;10.30;6.50;;;;;;;;;;5073867;28;20251;-77
2023/01/26 12:12:26;;;;;;;10.43;5.53;;;;;;;;;;5073970;28;20281;-77
2023/01/26 12:14:57;;;;;;;9.48;5.47;;;;;;;;;;5069536;28;20179;-77
2023/01/26 12:17:28;;;;;;;10.25;6.57;;;;;;;;;;5054112;28;20652;-77
2023/01/26 12:20:03;;;;;;;15.52;6.15;;;;;;;;;;5054616;28;20285;-77
2023/01/26 12:22:31;;;;;;;11.70;5.90;;;;;;;;;;5062923;28;20243;-77
2023/01/26 12:25:03;;;;;;;9.23;5.32;;;;;;;;;;5073833;28;20236;-77
2023/01/26 12:27:34;;;;;;;10.20;5.35;;;;;;;;;;5073735;28;20308;-77
2023/01/26 12:30:04;;;;;;;8.52;5.35;;;;;;;;;;5073979;28;20193;-77
2023/01/26 12:32:34;;;;;;;6.65;5.15;;;;;;;;;;5074137;28;20656;-77
2023/01/26 12:35:01;;;;;;;11.68;6.63;;;;;;;;;;5069734;28;20191;-77
2023/01/26 12:37:46;;;;;;;10.63;6.35;;;;;;;;;;5053920;28;20190;-77
2023/01/26 12:40:17;;;;;;;9.85;6.35;;;;;;;;;;5053809;28;20204;-77
2023/01/26 12:42:48;;;;;;;11.07;6.55;;;;;;;;;;5054029;28;20269;-76
2023/01/26 12:45:18;;;;;;;10.18;6.15;;;;;;;;;;5052939;28;20226;-77
2023/01/26 12:47:49;;;;;;;10.93;5.28;;;;;;;;;;5060820;28;20198;-77
2023/01/26 12:50:18;;;;;;;10.90;6.93;;;;;;;;;;5066327;28;20281;-77
2023/01/26 12:52:49;;;;;;;11.75;7.90;;;;;;;;;;5052844;28;20194;-77
2023/01/26 12:55:19;;;;;;;12.15;6.68;;;;;;;;;;5057223;28;20190;-77
2023/01/26 12:57:49;;;;;;;10.10;5.90;;;;;;;;;;5073459;28;20212;-77
2023/01/26 13:00:20;;;;;;;13.63;5.32;;;;;;;;;;5067623;28;20183;-77
2023/01/26 13:02:49;;;;;;;11.20;6.78;;;;;;;;;;5061680;28;20186;-77
2023/01/26 13:05:24;;;;;;;10.13;6.65;;;;;;;;;;5068229;28;20197;-77
2023/01/26 13:07:51;;;;;;;10.48;6.63;;;;;;;;;;5056849;28;20284;-77
2023/01/26 13:10:24;;;;;;;11.60;9.05;;;;;;;;;;5068986;28;20220;-77
2023/01/26 13:12:53;;;;;;;12.07;6.70;;;;;;;;;;5072573;28;20663;-77
2023/01/26 13:15:21;;;;;;;10.88;6.60;;;;;;;;;;5061766;28;20186;-76
2023/01/26 13:17:54;;;;;;;11.10;7.05;;;;;;;;;;5053660;28;20194;-77
2023/01/26 13:20:27;;;;;;;10.80;6.00;;;;;;;;;;5053579;28;20183;-76
2023/01/26 13:22:56;;;;;;;10.32;6.72;;;;;;;;;;5063697;28;20178;-76
2023/01/26 13:25:30;;;;;;;10.40;6.03;;;;;;;;;;5066609;28;20676;-77
2023/01/26 13:27:58;;;;;;;10.73;5.78;;;;;;;;;;5053280;28;20191;-76
2023/01/26 13:30:39;;;;;;;9.23;5.70;;;;;;;;;;5053716;28;20187;-77
2023/01/26 13:33:14;;;;;;;11.15;6.53;;;;;;;;;;5054554;28;20297;-77
2023/01/26 13:35:42;;;;;;;10.10;6.88;;;;;;;;;;5073122;28;20276;-77
2023/01/26 13:38:15;;;;;;;14.18;7.95;;;;;;;;;;5073227;28;20189;-76
2023/01/26 13:40:43;;;;;;;12.02;6.70;;;;;;;;;;5073469;28;20190;-77
2023/01/26 13:43:14;;;;;;;14.10;7.10;;;;;;;;;;5073159;28;20224;-77
2023/01/26 13:45:47;;;;;;;14.27;8.27;;;;;;;;;;5073146;28;20260;-76
2023/01/26 13:48:17;;;;;;;12.57;6.97;;;;;;;;;;5073395;28;20613;-77
2023/01/26 13:50:44;;;;;;;12.75;7.97;;;;;;;;;;5073432;28;20189;-77
2023/01/26 13:53:30;;;;;;;13.57;8.55;;;;;;;;;;5073224;28;20544;-77
2023/01/26 13:55:59;;;;;;;13.93;7.80;;;;;;;;;;5072898;28;20190;-77
2023/01/26 13:58:26;;;;;;;13.07;7.88;;;;;;;;;;5073252;28;20186;-77
2023/01/26 14:01:04;;;;;;;13.85;8.07;;;;;;;;;;5072845;28;20638;-76
2023/01/26 14:03:33;;;;;;;13.45;6.15;;;;;;;;;;5072775;28;20227;-77
2023/01/26 14:06:03;;;;;;;10.65;6.15;;;;;;;;;;5072355;28;20269;-77
2023/01/26 14:08:31;;;;;;;12.23;7.00;;;;;;;;;;5073213;28;20605;-76
2023/01/26 14:11:00;;;;;;;10.18;7.68;;;;;;;;;;5072956;28;20277;-75
2023/01/26 14:13:30;;;;;;;14.02;7.78;;;;;;;;;;5073144;28;20481;-77
2023/01/26 14:15:58;;;;;;;14.98;7.65;;;;;;;;;;5072707;28;20538;-77
2023/01/26 14:18:25;;;;;;;11.70;7.47;;;;;;;;;;5072887;28;20368;-77
2023/01/26 14:21:00;;;;;;;12.15;8.20;;;;;;;;;;5072722;28;20396;-77
2023/01/26 14:23:29;;;;;;;12.07;7.45;;;;;;;;;;5072865;28;20247;-77
2023/01/26 14:26:01;;;;;;;12.15;6.95;;;;;;;;;;5072594;28;20197;-77
2023/01/26 14:28:30;;;;;;;13.00;7.20;;;;;;;;;;5072740;28;20205;-76
2023/01/26 14:30:58;;;;;;;13.65;6.63;;;;;;;;;;5073015;28;20578;-77
2023/01/26 14:33:26;;;;;;;12.38;7.38;;;;;;;;;;5072778;28;20247;-76
2023/01/26 14:35:56;;;;;;;14.52;7.53;;;;;;;;;;5072474;28;20289;-77
2023/01/26 14:38:27;;;;;;;12.80;7.07;;;;;;;;;;5072466;28;20228;-77
2023/01/26 14:40:55;;;;;;;11.35;7.85;;;;;;;;;;5072745;28;20633;-76
2023/01/26 14:43:23;;;;;;;14.70;8.70;;;;;;;;;;5072633;28;20323;-76
2023/01/26 14:45:53;;;;;;;15.27;8.35;;;;;;;;;;5072179;28;20624;-76
2023/01/26 14:48:22;;;;;;;10.27;6.55;;;;;;;;;;5072456;28;20190;-76
2023/01/26 14:50:50;;;;;;;10.98;6.20;;;;;;;;;;5072503;28;20272;-76
2023/01/26 14:53:18;;;;;;;10.50;6.22;;;;;;;;;;5072513;28;20209;-76
2023/01/26 14:55:48;;;;;;;15.50;6.55;;;;;;;;;;5072449;28;20637;-76
2023/01/26 14:58:20;;;;;;;12.13;7.13;;;;;;;;;;5072207;28;20216;-77
2023/01/26 15:00:48;;;;;;;16.58;8.18;;;;;;;;;;5072297;28;20227;-76
2023/01/26 15:03:21;;;;;;;14.85;8.63;;;;;;;;;;5072312;28;20197;-77
2023/01/26 15:05:48;;;;;;;16.42;9.18;;;;;;;;;;5072169;28;20663;-77
2023/01/26 15:08:20;;;;;;;26.35;16.70;;;;;;;;;;5072181;28;20209;-77
2023/01/26 15:12:14;;;;;;;9.32;5.90;;;;;;;;;;5071961;28;20197;-77
2023/01/26 15:13:44;;;;;;;12.35;7.18;;;;;;;;;;5072102;28;20236;-77
2023/01/26 15:16:16;;;;;;;18.02;11.57;;;;;;;;;;5076606;28;20264;-77
2023/01/26 15:18:43;;;;;;;10.80;6.45;;;;;;;;;;5076429;28;20284;-75
2023/01/26 15:21:13;;;;;;;13.00;7.10;;;;;;;;;;5076178;28;20193;-77
2023/01/26 15:23:42;;;;;;;11.10;5.72;;;;;;;;;;5076281;28;20282;-77
2023/01/26 15:26:13;;;;;;;10.02;6.40;;;;;;;;;;5075970;28;20541;-77
2023/01/26 15:28:40;;;;;;;12.25;6.97;;;;;;;;;;5076098;28;20280;-77
2023/01/26 15:31:08;;;;;;;15.93;7.88;;;;;;;;;;5075959;28;20307;-76